Time;durP1;ratioP1;P1;durP2;ratioP2;P2;SDS_P1;SDS_P2;PMS_P1;PMS_P2;Temp;Humidity;BMP_temperature;BMP_pressure;BME280_temperature;BME280_humidity;BME280_pressure;Samples;Min_cycle;Max_cycle;Signal;HPM_P1;HPM_P2
2023/08/16 00:02:05;;;;;;;14.05;6.10;;;;;;;;;;5110731;28;20071;-68
2023/08/16 00:04:36;;;;;;;14.60;5.97;;;;;;;;;;5109618;28;20130;-68
2023/08/16 00:07:08;;;;;;;16.77;6.38;;;;;;;;;;5110297;28;20043;-68
2023/08/16 00:09:38;;;;;;;13.25;6.13;;;;;;;;;;5113181;28;20059;-69
2023/08/16 00:12:09;;;;;;;19.10;5.75;;;;;;;;;;5113954;28;20065;-68
2023/08/16 00:14:39;;;;;;;8.30;5.22;;;;;;;;;;5113603;28;20108;-68
2023/08/16 00:17:09;;;;;;;7.55;4.90;;;;;;;;;;5113885;28;20138;-68
2023/08/16 00:19:40;;;;;;;7.78;4.40;;;;;;;;;;5112611;28;20048;-68
2023/08/16 00:22:13;;;;;;;6.88;3.88;;;;;;;;;;5114026;28;20047;-68
2023/08/16 00:24:43;;;;;;;7.00;4.50;;;;;;;;;;5113716;28;20081;-68
2023/08/16 00:27:13;;;;;;;8.95;4.05;;;;;;;;;;5113944;28;20130;-68
2023/08/16 00:29:43;;;;;;;8.95;4.97;;;;;;;;;;5113336;28;20054;-68
2023/08/16 00:32:14;;;;;;;7.78;5.10;;;;;;;;;;5113226;28;20044;-68
2023/08/16 00:34:44;;;;;;;9.52;5.00;;;;;;;;;;5113876;28;20044;-68
2023/08/16 00:37:15;;;;;;;10.65;4.90;;;;;;;;;;5113198;28;20054;-68
2023/08/16 00:39:46;;;;;;;15.15;6.00;;;;;;;;;;5112894;28;20413;-68
2023/08/16 00:42:16;;;;;;;12.88;5.95;;;;;;;;;;5112819;28;20142;-68
2023/08/16 00:44:46;;;;;;;11.27;5.70;;;;;;;;;;5113181;28;20039;-67
2023/08/16 00:47:17;;;;;;;8.40;4.93;;;;;;;;;;5112657;28;20138;-68
2023/08/16 00:49:47;;;;;;;9.80;5.63;;;;;;;;;;5112919;28;20046;-68
2023/08/16 00:52:19;;;;;;;11.43;5.80;;;;;;;;;;5112845;28;20493;-68
2023/08/16 00:54:49;;;;;;;12.50;6.38;;;;;;;;;;5112956;28;20056;-68
2023/08/16 00:57:20;;;;;;;11.93;5.40;;;;;;;;;;5112276;28;20151;-68
2023/08/16 00:59:50;;;;;;;10.18;5.78;;;;;;;;;;5112425;28;20040;-68
2023/08/16 01:02:23;;;;;;;12.70;6.40;;;;;;;;;;5112781;28;20062;-68
2023/08/16 01:04:53;;;;;;;18.02;6.07;;;;;;;;;;5112774;28;20048;-68
2023/08/16 01:07:25;;;;;;;8.98;5.93;;;;;;;;;;5112361;28;20416;-68
2023/08/16 01:09:55;;;;;;;10.27;6.47;;;;;;;;;;5112042;28;20044;-68
2023/08/16 01:12:28;;;;;;;10.65;5.65;;;;;;;;;;5112476;28;20052;-67
2023/08/16 01:15:00;;;;;;;8.57;5.70;;;;;;;;;;5112623;28;20590;-68
2023/08/16 01:17:31;;;;;;;12.27;6.40;;;;;;;;;;5112402;28;20130;-68
2023/08/16 01:20:03;;;;;;;14.55;6.13;;;;;;;;;;5111426;28;20059;-68
2023/08/16 01:22:42;;;;;;;13.57;6.38;;;;;;;;;;5112317;28;20039;-68
2023/08/16 01:25:16;;;;;;;10.38;5.75;;;;;;;;;;5112330;28;20039;-68
2023/08/16 01:27:48;;;;;;;14.38;6.05;;;;;;;;;;5112608;28;20054;-68
2023/08/16 01:30:18;;;;;;;11.57;6.32;;;;;;;;;;5111962;28;20051;-68
2023/08/16 01:32:48;;;;;;;12.60;6.30;;;;;;;;;;5112399;28;20054;-67
2023/08/16 01:35:19;;;;;;;10.95;5.68;;;;;;;;;;5112522;28;20058;-68
2023/08/16 01:37:49;;;;;;;12.43;6.22;;;;;;;;;;5112667;28;20043;-68
2023/08/16 01:40:19;;;;;;;11.88;6.90;;;;;;;;;;5111183;28;20051;-68
2023/08/16 01:42:52;;;;;;;10.75;6.30;;;;;;;;;;5112335;28;20143;-68
2023/08/16 01:45:22;;;;;;;12.48;6.15;;;;;;;;;;5111537;28;20048;-68
2023/08/16 01:47:53;;;;;;;14.23;5.15;;;;;;;;;;5112217;28;20048;-68
2023/08/16 01:50:24;;;;;;;11.15;4.47;;;;;;;;;;5110346;28;20487;-68
2023/08/16 01:52:54;;;;;;;13.70;5.20;;;;;;;;;;5111650;28;20503;-67
2023/08/16 01:55:25;;;;;;;9.07;4.90;;;;;;;;;;5111084;28;20497;-68
2023/08/16 01:57:57;;;;;;;8.32;4.57;;;;;;;;;;5111806;28;20452;-68
2023/08/16 02:00:28;;;;;;;10.50;5.75;;;;;;;;;;5110984;28;20051;-68
2023/08/16 02:02:58;;;;;;;9.20;5.07;;;;;;;;;;5112118;28;20050;-68
2023/08/16 02:05:28;;;;;;;10.95;4.65;;;;;;;;;;5111496;28;20050;-68
2023/08/16 02:07:58;;;;;;;8.05;4.53;;;;;;;;;;5111045;28;20439;-68
2023/08/16 02:10:29;;;;;;;7.07;4.70;;;;;;;;;;5110909;28;20138;-68
2023/08/16 02:13:00;;;;;;;7.10;5.45;;;;;;;;;;5111270;28;20046;-68
2023/08/16 02:15:31;;;;;;;5.82;4.57;;;;;;;;;;5111569;28;20511;-68
2023/08/16 02:18:02;;;;;;;6.32;4.18;;;;;;;;;;5110469;28;20047;-68
2023/08/16 02:20:32;;;;;;;7.65;4.45;;;;;;;;;;5110544;28;20255;-68
2023/08/16 02:23:02;;;;;;;8.77;4.55;;;;;;;;;;5110925;27;20505;-68
2023/08/16 02:25:32;;;;;;;10.13;4.80;;;;;;;;;;5111572;28;20048;-68
2023/08/16 02:28:04;;;;;;;10.15;5.22;;;;;;;;;;5110393;28;20047;-68
2023/08/16 02:30:34;;;;;;;14.52;5.70;;;;;;;;;;5109917;28;20047;-68
2023/08/16 02:33:05;;;;;;;10.07;5.20;;;;;;;;;;5110465;28;20054;-68
2023/08/16 02:35:35;;;;;;;9.45;5.63;;;;;;;;;;5111124;28;20503;-68
2023/08/16 02:38:05;;;;;;;14.52;5.35;;;;;;;;;;5110578;28;20043;-68
2023/08/16 02:40:36;;;;;;;9.52;5.53;;;;;;;;;;5111023;28;20405;-67
2023/08/16 02:43:08;;;;;;;8.77;5.03;;;;;;;;;;5110959;28;20478;-68
2023/08/16 02:45:39;;;;;;;7.28;4.68;;;;;;;;;;5110358;28;20046;-68
2023/08/16 02:48:10;;;;;;;7.15;4.93;;;;;;;;;;5110676;28;20409;-67
2023/08/16 02:50:40;;;;;;;6.22;4.38;;;;;;;;;;5110038;28;20055;-67
2023/08/16 02:53:10;;;;;;;7.53;4.75;;;;;;;;;;5110796;28;20050;-68
2023/08/16 02:55:41;;;;;;;6.65;4.90;;;;;;;;;;5110231;28;20043;-68
2023/08/16 02:58:12;;;;;;;8.60;5.40;;;;;;;;;;5110329;28;20055;-68
2023/08/16 03:00:43;;;;;;;7.63;5.60;;;;;;;;;;5110241;28;20044;-67
2023/08/16 03:03:13;;;;;;;6.28;4.32;;;;;;;;;;5110919;28;20282;-68
2023/08/16 03:05:43;;;;;;;6.40;4.47;;;;;;;;;;5109972;28;20048;-68
2023/08/16 03:08:13;;;;;;;5.05;4.28;;;;;;;;;;5110752;28;20122;-68
2023/08/16 03:10:44;;;;;;;6.55;4.32;;;;;;;;;;5109686;28;20048;-68
2023/08/16 03:13:15;;;;;;;4.97;4.32;;;;;;;;;;5110768;28;20408;-68
2023/08/16 03:15:46;;;;;;;6.88;5.38;;;;;;;;;;5110718;28;20049;-68
2023/08/16 03:18:16;;;;;;;5.93;4.72;;;;;;;;;;5109835;28;20056;-68
2023/08/16 03:20:46;;;;;;;6.32;4.78;;;;;;;;;;5109897;28;20138;-68
2023/08/16 03:23:16;;;;;;;5.88;4.68;;;;;;;;;;5109979;28;20075;-68
2023/08/16 03:25:47;;;;;;;6.40;4.40;;;;;;;;;;5110708;28;20066;-67
2023/08/16 03:28:18;;;;;;;7.85;5.50;;;;;;;;;;5110012;28;20131;-68
2023/08/16 03:30:49;;;;;;;7.20;5.32;;;;;;;;;;5109979;28;20047;-68
2023/08/16 03:33:19;;;;;;;8.13;4.70;;;;;;;;;;5109863;28;20047;-68
2023/08/16 03:35:49;;;;;;;5.78;4.63;;;;;;;;;;5110382;28;20089;-68
2023/08/16 03:38:19;;;;;;;6.28;4.78;;;;;;;;;;5109633;28;20047;-68
2023/08/16 03:40:50;;;;;;;6.88;4.72;;;;;;;;;;5109949;28;20043;-68
2023/08/16 03:43:21;;;;;;;6.00;4.32;;;;;;;;;;5114403;28;20054;-68
2023/08/16 03:45:52;;;;;;;7.75;5.25;;;;;;;;;;5114242;28;20052;-68
2023/08/16 03:48:23;;;;;;;6.60;4.72;;;;;;;;;;5114337;28;20481;-68
2023/08/16 03:50:53;;;;;;;7.45;5.45;;;;;;;;;;5113701;28;20075;-68
2023/08/16 03:53:23;;;;;;;6.03;4.50;;;;;;;;;;5114367;28;20493;-68
2023/08/16 03:55:59;;;;;;;5.70;4.45;;;;;;;;;;5113905;28;20050;-67
2023/08/16 03:58:31;;;;;;;6.13;4.45;;;;;;;;;;5113931;28;20039;-68
2023/08/16 04:01:01;;;;;;;4.85;4.07;;;;;;;;;;5113210;28;20047;-68
2023/08/16 04:03:32;;;;;;;4.53;3.88;;;;;;;;;;5114130;28;20062;-68
2023/08/16 04:06:02;;;;;;;4.90;3.67;;;;;;;;;;5113165;28;20043;-68
2023/08/16 04:08:32;;;;;;;5.45;4.65;;;;;;;;;;5113863;28;20082;-68
2023/08/16 04:11:02;;;;;;;5.43;3.72;;;;;;;;;;5112903;28;20459;-68
2023/08/16 04:13:34;;;;;;;4.57;3.90;;;;;;;;;;5114397;28;20039;-68
2023/08/16 04:16:04;;;;;;;8.85;4.90;;;;;;;;;;5114135;28;20044;-65
2023/08/16 04:18:35;;;;;;;6.30;4.88;;;;;;;;;;5113274;28;20368;-66
2023/08/16 04:21:05;;;;;;;6.70;4.43;;;;;;;;;;5113109;28;20040;-65
2023/08/16 04:23:35;;;;;;;7.30;4.90;;;;;;;;;;5113115;28;20096;-65
2023/08/16 04:26:06;;;;;;;7.15;4.90;;;;;;;;;;5114003;28;20474;-65
2023/08/16 04:28:37;;;;;;;6.70;4.93;;;;;;;;;;5113361;28;20054;-65
2023/08/16 04:31:08;;;;;;;8.18;5.50;;;;;;;;;;5113351;28;20396;-66
2023/08/16 04:33:38;;;;;;;6.53;4.78;;;;;;;;;;5113372;28;20040;-65
2023/08/16 04:36:09;;;;;;;8.30;5.30;;;;;;;;;;5113202;28;20051;-66
2023/08/16 04:38:39;;;;;;;5.63;4.55;;;;;;;;;;5113003;28;20047;-65
2023/08/16 04:41:09;;;;;;;9.68;5.00;;;;;;;;;;5113197;28;20071;-65
2023/08/16 04:43:41;;;;;;;6.57;4.72;;;;;;;;;;5113330;28;20054;-65
2023/08/16 04:46:11;;;;;;;5.50;4.35;;;;;;;;;;5113316;28;20130;-65
2023/08/16 04:48:41;;;;;;;6.63;4.72;;;;;;;;;;5113053;28;20043;-65
2023/08/16 04:51:12;;;;;;;6.63;4.72;;;;;;;;;;5112636;28;20043;-65
2023/08/16 04:53:42;;;;;;;7.03;3.88;;;;;;;;;;5112405;28;20047;-65
2023/08/16 04:56:12;;;;;;;6.78;4.70;;;;;;;;;;5112917;28;20050;-65
2023/08/16 04:58:44;;;;;;;5.05;4.30;;;;;;;;;;5112957;28;20416;-65
2023/08/16 05:01:14;;;;;;;4.90;3.80;;;;;;;;;;5112089;28;20047;-65
2023/08/16 05:03:50;;;;;;;5.53;3.35;;;;;;;;;;5113270;28;20131;-65
2023/08/16 05:06:20;;;;;;;5.05;3.08;;;;;;;;;;5112589;28;20050;-65
2023/08/16 05:08:51;;;;;;;3.53;3.15;;;;;;;;;;5112861;28;20069;-65
2023/08/16 05:11:21;;;;;;;4.28;2.85;;;;;;;;;;5111680;28;20055;-65
2023/08/16 05:13:53;;;;;;;3.55;3.13;;;;;;;;;;5112882;28;20048;-65
2023/08/16 05:16:23;;;;;;;4.97;3.70;;;;;;;;;;5112401;28;20051;-66
2023/08/16 05:18:53;;;;;;;7.40;3.72;;;;;;;;;;5112570;28;20404;-65
2023/08/16 05:21:23;;;;;;;4.10;3.60;;;;;;;;;;5112052;28;20051;-65
2023/08/16 05:23:54;;;;;;;5.82;4.20;;;;;;;;;;5111635;28;20549;-66
2023/08/16 05:26:24;;;;;;;4.53;4.00;;;;;;;;;;5112596;28;20058;-65
2023/08/16 05:28:58;;;;;;;5.20;3.92;;;;;;;;;;5112090;28;20078;-66
2023/08/16 05:31:28;;;;;;;4.90;3.78;;;;;;;;;;5112133;28;20146;-65
2023/08/16 05:33:58;;;;;;;4.68;3.88;;;;;;;;;;5111658;28;20050;-65
2023/08/16 05:36:32;;;;;;;6.78;4.38;;;;;;;;;;5111965;28;20047;-65
2023/08/16 05:39:03;;;;;;;5.95;4.30;;;;;;;;;;5111787;28;20044;-65
2023/08/16 05:41:33;;;;;;;5.13;4.00;;;;;;;;;;5111778;28;20125;-65
2023/08/16 05:44:05;;;;;;;4.75;3.95;;;;;;;;;;5110971;28;20066;-65
2023/08/16 05:46:35;;;;;;;5.97;3.97;;;;;;;;;;5112773;28;20606;-65
2023/08/16 05:49:06;;;;;;;5.70;4.28;;;;;;;;;;5112221;28;20100;-65
2023/08/16 05:51:36;;;;;;;5.13;4.43;;;;;;;;;;5112948;28;20044;-65
2023/08/16 05:54:07;;;;;;;4.93;4.00;;;;;;;;;;5113022;28;20048;-65
2023/08/16 05:56:37;;;;;;;5.07;3.65;;;;;;;;;;5111877;28;20047;-66
2023/08/16 05:59:09;;;;;;;5.07;4.18;;;;;;;;;;5111962;28;20092;-65
2023/08/16 06:01:40;;;;;;;4.03;3.63;;;;;;;;;;5111573;28;20043;-65
2023/08/16 06:04:10;;;;;;;4.13;3.63;;;;;;;;;;5111972;28;20048;-65
2023/08/16 06:06:40;;;;;;;4.93;3.90;;;;;;;;;;5111687;28;20048;-65
2023/08/16 06:09:11;;;;;;;4.15;3.70;;;;;;;;;;5105554;28;20043;-65
2023/08/16 06:11:41;;;;;;;3.60;3.20;;;;;;;;;;5108265;28;20043;-65
2023/08/16 06:14:12;;;;;;;3.92;3.13;;;;;;;;;;5102633;28;20472;-65
2023/08/16 06:16:43;;;;;;;3.58;3.17;;;;;;;;;;5109455;28;20043;-65
2023/08/16 06:19:15;;;;;;;4.75;3.40;;;;;;;;;;5110447;28;20497;-65
2023/08/16 06:21:45;;;;;;;;;;;;;;;;;;5098068;28;20097;-65
2023/08/16 06:24:16;;;;;;;6.13;4.13;;;;;;;;;;5105166;28;19972;-65
2023/08/16 06:26:46;;;;;;;5.20;4.30;;;;;;;;;;5110504;28;20589;-65
2023/08/16 06:29:18;;;;;;;7.95;5.13;;;;;;;;;;5103390;28;20044;-65
2023/08/16 06:31:48;;;;;;;7.30;4.80;;;;;;;;;;5109856;28;20050;-65
2023/08/16 06:34:19;;;;;;;6.43;4.75;;;;;;;;;;5109402;28;20553;-65
2023/08/16 06:36:49;;;;;;;6.13;4.50;;;;;;;;;;5110144;28;20054;-65
2023/08/16 06:39:19;;;;;;;6.85;4.68;;;;;;;;;;5109361;28;20130;-65
2023/08/16 06:41:50;;;;;;;5.40;3.97;;;;;;;;;;5109815;28;20051;-65
2023/08/16 06:44:21;;;;;;;3.60;3.30;;;;;;;;;;5102850;28;20485;-65
2023/08/16 06:46:52;;;;;;;6.38;3.67;;;;;;;;;;5098923;28;20036;-65
2023/08/16 06:49:22;;;;;;;4.00;3.30;;;;;;;;;;5093213;28;20165;-65
2023/08/16 06:51:52;;;;;;;4.68;3.90;;;;;;;;;;5105357;28;20053;-65
2023/08/16 06:54:23;;;;;;;5.20;3.35;;;;;;;;;;5109972;28;20057;-65
2023/08/16 06:56:57;;;;;;;4.15;3.38;;;;;;;;;;5109312;28;20253;-65
2023/08/16 06:59:29;;;;;;;3.90;3.50;;;;;;;;;;5098998;28;20044;-65
2023/08/16 07:02:00;;;;;;;;;;;;;;;;;;5092014;28;20669;-65
2023/08/16 07:04:30;;;;;;;4.40;3.88;;;;;;;;;;5108854;28;19934;-65
2023/08/16 07:07:00;;;;;;;4.07;3.67;;;;;;;;;;5110314;28;20058;-65
2023/08/16 07:09:30;;;;;;;4.40;3.80;;;;;;;;;;5107332;28;20052;-65
2023/08/16 07:12:01;;;;;;;5.80;4.30;;;;;;;;;;5109876;28;20046;-65
2023/08/16 07:14:32;;;;;;;7.22;5.20;;;;;;;;;;5108734;28;20153;-65
2023/08/16 07:17:05;;;;;;;9.02;5.57;;;;;;;;;;5109403;28;20400;-65
2023/08/16 07:19:35;;;;;;;;;;;;;;;;;;5108871;28;20050;-65
2023/08/16 07:22:05;;;;;;;6.63;5.45;;;;;;;;;;5107401;28;19920;-65
2023/08/16 07:24:35;;;;;;;7.68;5.68;;;;;;;;;;5108358;28;20039;-65
2023/08/16 07:27:05;;;;;;;6.65;5.75;;;;;;;;;;5104094;28;20036;-65
2023/08/16 07:29:37;;;;;;;7.53;6.22;;;;;;;;;;5107981;28;20047;-66
2023/08/16 07:32:08;;;;;;;7.68;5.80;;;;;;;;;;5109063;28;20046;-65
2023/08/16 07:34:38;;;;;;;5.55;4.70;;;;;;;;;;5098524;28;20051;-65
2023/08/16 07:37:11;;;;;;;5.70;4.90;;;;;;;;;;5092003;28;20046;-65
2023/08/16 07:39:41;;;;;;;6.47;5.20;;;;;;;;;;5104890;28;20477;-65
2023/08/16 07:42:12;;;;;;;5.95;4.72;;;;;;;;;;5104654;28;20046;-65
2023/08/16 07:44:43;;;;;;;5.88;4.70;;;;;;;;;;5093850;28;20120;-65
2023/08/16 07:47:14;;;;;;;4.60;4.20;;;;;;;;;;5102246;28;20119;-65
2023/08/16 07:49:45;;;;;;;7.30;4.30;;;;;;;;;;5105901;28;20036;-65
2023/08/16 07:52:15;;;;;;;5.30;4.80;;;;;;;;;;5108586;28;20093;-65
2023/08/16 07:54:45;;;;;;;6.32;4.93;;;;;;;;;;5104389;28;20504;-66
2023/08/16 07:57:16;;;;;;;5.90;4.60;;;;;;;;;;5104941;28;20036;-65
2023/08/16 07:59:47;;;;;;;5.90;4.80;;;;;;;;;;5107210;28;20062;-65
2023/08/16 08:02:18;;;;;;;13.27;6.55;;;;;;;;;;5106208;28;20046;-65
2023/08/16 08:04:48;;;;;;;5.70;5.10;;;;;;;;;;5097423;28;20126;-65
2023/08/16 08:07:19;;;;;;;6.85;5.35;;;;;;;;;;5102785;28;20048;-65
2023/08/16 08:09:49;;;;;;;6.70;6.07;;;;;;;;;;5100164;28;20044;-65
2023/08/16 08:12:19;;;;;;;7.57;5.20;;;;;;;;;;5109450;28;20093;-65
2023/08/16 08:14:51;;;;;;;5.82;5.22;;;;;;;;;;5108573;28;20047;-65
2023/08/16 08:17:21;;;;;;;6.38;5.22;;;;;;;;;;5109028;28;20048;-65
2023/08/16 08:19:52;;;;;;;7.32;5.60;;;;;;;;;;5104654;28;20048;-64
2023/08/16 08:22:22;;;;;;;5.70;4.68;;;;;;;;;;5105012;28;20131;-65
2023/08/16 08:24:52;;;;;;;5.43;4.18;;;;;;;;;;5109419;28;20043;-65
2023/08/16 08:27:22;;;;;;;3.55;3.25;;;;;;;;;;5107866;28;20045;-65
2023/08/16 08:29:55;;;;;;;4.55;3.95;;;;;;;;;;5097072;28;20040;-65
2023/08/16 08:32:25;;;;;;;3.80;3.45;;;;;;;;;;5100599;28;20048;-65
2023/08/16 08:34:55;;;;;;;4.78;3.65;;;;;;;;;;5098226;28;20040;-65
2023/08/16 08:37:26;;;;;;;5.35;3.60;;;;;;;;;;5103205;28;20044;-65
2023/08/16 08:39:56;;;;;;;3.25;2.95;;;;;;;;;;5108467;28;20043;-65
2023/08/16 08:42:26;;;;;;;4.68;3.45;;;;;;;;;;5108549;28;20054;-65
2023/08/16 08:44:59;;;;;;;6.43;3.70;;;;;;;;;;5112054;28;20074;-65
2023/08/16 08:47:30;;;;;;;4.15;3.38;;;;;;;;;;5112540;28;20459;-65
2023/08/16 08:50:02;;;;;;;4.43;3.60;;;;;;;;;;5104895;28;20044;-65
2023/08/16 08:52:32;;;;;;;3.72;3.42;;;;;;;;;;5111457;28;20043;-65
2023/08/16 08:55:02;;;;;;;4.00;3.60;;;;;;;;;;5111973;28;20040;-65
2023/08/16 08:57:34;;;;;;;4.25;3.85;;;;;;;;;;5111141;28;20043;-65
2023/08/16 09:00:08;;;;;;;4.55;3.85;;;;;;;;;;5111179;28;20050;-64
2023/08/16 09:02:40;;;;;;;5.00;4.05;;;;;;;;;;5111653;28;20067;-65
2023/08/16 09:05:14;;;;;;;7.70;4.60;;;;;;;;;;5109176;28;20081;-64
2023/08/16 09:07:45;;;;;;;5.53;4.93;;;;;;;;;;5110934;28;20478;-64
2023/08/16 09:10:16;;;;;;;6.13;5.07;;;;;;;;;;5111663;28;20051;-65
2023/08/16 09:12:46;;;;;;;6.85;5.82;;;;;;;;;;5111533;28;20437;-64
2023/08/16 09:15:18;;;;;;;8.43;5.28;;;;;;;;;;5110154;28;20044;-65
2023/08/16 09:17:50;;;;;;;6.07;4.80;;;;;;;;;;5094055;28;20044;-65
2023/08/16 09:20:21;;;;;;;;;;;;;;;;;;5099758;28;20498;-64
2023/08/16 09:22:52;;;;;;;5.50;5.00;;;;;;;;;;5099873;28;19927;-65
2023/08/16 09:25:22;;;;;;;5.78;4.78;;;;;;;;;;5105094;28;20040;-65
2023/08/16 09:27:53;;;;;;;5.10;4.30;;;;;;;;;;5099233;28;20048;-65
2023/08/16 09:30:24;;;;;;;5.50;4.18;;;;;;;;;;5106903;28;20550;-65
2023/08/16 09:32:56;;;;;;;5.93;4.68;;;;;;;;;;5108792;28;20035;-65
2023/08/16 09:35:31;;;;;;;4.75;4.10;;;;;;;;;;5111149;28;20048;-65
2023/08/16 09:38:01;;;;;;;4.72;3.80;;;;;;;;;;5101548;28;20040;-65
2023/08/16 09:40:31;;;;;;;3.72;3.30;;;;;;;;;;5108484;28;20164;-65
2023/08/16 09:43:04;;;;;;;4.82;3.70;;;;;;;;;;5104185;28;20043;-65
2023/08/16 09:45:37;;;;;;;4.43;3.28;;;;;;;;;;5110592;28;20075;-65
2023/08/16 09:48:08;;;;;;;3.65;3.35;;;;;;;;;;5101380;28;20044;-65
2023/08/16 09:50:39;;;;;;;5.00;3.70;;;;;;;;;;5109364;28;20091;-65
2023/08/16 09:53:09;;;;;;;5.13;3.42;;;;;;;;;;5110276;28;20058;-65
2023/08/16 09:55:39;;;;;;;4.72;3.40;;;;;;;;;;5107804;28;20170;-65
2023/08/16 09:58:11;;;;;;;4.38;3.83;;;;;;;;;;5099569;28;20512;-65
2023/08/16 10:00:42;;;;;;;;;;;;;;;;;;5096353;28;20039;-65
2023/08/16 10:03:14;;;;;;;3.65;3.35;;;;;;;;;;5106055;28;19919;-65
2023/08/16 10:05:45;;;;;;;4.72;3.28;;;;;;;;;;5108955;28;20050;-65
2023/08/16 10:08:16;;;;;;;3.75;3.38;;;;;;;;;;5109824;28;20057;-66
2023/08/16 10:10:46;;;;;;;4.15;3.33;;;;;;;;;;5110829;28;20048;-65
2023/08/16 10:13:17;;;;;;;5.22;3.22;;;;;;;;;;5109974;28;20052;-65
2023/08/16 10:15:47;;;;;;;4.53;3.00;;;;;;;;;;5109559;28;20051;-66
2023/08/16 10:18:21;;;;;;;4.47;3.13;;;;;;;;;;5096200;28;20040;-65
2023/08/16 10:20:51;;;;;;;5.20;3.20;;;;;;;;;;5090241;28;20056;-66
2023/08/16 10:23:23;;;;;;;4.80;3.60;;;;;;;;;;5091066;28;20044;-65
2023/08/16 10:25:55;;;;;;;7.20;3.60;;;;;;;;;;5090266;28;20079;-65
2023/08/16 10:28:27;;;;;;;3.70;3.40;;;;;;;;;;5090863;28;20051;-65
2023/08/16 10:30:58;;;;;;;13.48;3.65;;;;;;;;;;5107288;28;20044;-65
2023/08/16 10:33:36;;;;;;;3.85;3.38;;;;;;;;;;5111333;28;20051;-65
2023/08/16 10:36:09;;;;;;;3.65;3.00;;;;;;;;;;5110470;28;20424;-65
2023/08/16 10:38:41;;;;;;;3.35;2.90;;;;;;;;;;5110869;28;20084;-65
2023/08/16 10:41:14;;;;;;;4.15;3.20;;;;;;;;;;5110062;28;20073;-65
2023/08/16 10:43:49;;;;;;;3.38;3.08;;;;;;;;;;5110780;28;20047;-66
2023/08/16 10:46:28;;;;;;;5.07;3.13;;;;;;;;;;5111020;28;20619;-66
2023/08/16 10:49:01;;;;;;;4.03;3.35;;;;;;;;;;5110479;28;20047;-66
2023/08/16 10:51:32;;;;;;;4.63;3.03;;;;;;;;;;5109834;28;20470;-65
2023/08/16 10:54:02;;;;;;;5.63;3.60;;;;;;;;;;5110941;28;20511;-65
2023/08/16 10:56:44;;;;;;;4.13;2.78;;;;;;;;;;5110816;28;20043;-65
2023/08/16 10:59:14;;;;;;;3.03;2.73;;;;;;;;;;5110173;28;20043;-65
2023/08/16 11:01:49;;;;;;;3.50;2.90;;;;;;;;;;5110675;28;20278;-65
2023/08/16 11:04:21;;;;;;;3.63;2.90;;;;;;;;;;5110542;28;20047;-65
2023/08/16 11:06:53;;;;;;;3.70;2.78;;;;;;;;;;5110780;28;20493;-66
2023/08/16 11:09:24;;;;;;;4.05;2.80;;;;;;;;;;5109972;28;20544;-65
2023/08/16 11:11:55;;;;;;;3.17;2.88;;;;;;;;;;5110129;28;20043;-65
2023/08/16 11:14:25;;;;;;;4.80;3.08;;;;;;;;;;5110208;28;20054;-66
2023/08/16 11:16:58;;;;;;;4.75;3.20;;;;;;;;;;5110596;28;20069;-65
2023/08/16 11:19:29;;;;;;;3.67;3.17;;;;;;;;;;5110159;28;20039;-66
2023/08/16 11:22:02;;;;;;;3.13;2.83;;;;;;;;;;5110631;28;20051;-65
2023/08/16 11:24:32;;;;;;;4.07;2.75;;;;;;;;;;5110116;28;20044;-65
2023/08/16 11:27:02;;;;;;;3.22;2.78;;;;;;;;;;5110567;28;20047;-66
2023/08/16 11:29:33;;;;;;;2.80;2.55;;;;;;;;;;5110223;28;20044;-65
2023/08/16 11:32:03;;;;;;;2.97;2.45;;;;;;;;;;5110382;28;20054;-65
2023/08/16 11:34:37;;;;;;;3.67;2.63;;;;;;;;;;5109887;28;20056;-65
2023/08/16 11:37:07;;;;;;;3.88;2.53;;;;;;;;;;5108744;28;20486;-66
2023/08/16 11:39:37;;;;;;;3.95;2.55;;;;;;;;;;5109381;28;20412;-65
2023/08/16 11:42:08;;;;;;;3.10;2.60;;;;;;;;;;5110118;28;20054;-66
2023/08/16 11:44:42;;;;;;;3.85;2.70;;;;;;;;;;5109209;28;20050;-66
2023/08/16 11:47:15;;;;;;;3.90;3.33;;;;;;;;;;5110027;28;20054;-66
2023/08/16 11:49:46;;;;;;;6.35;3.42;;;;;;;;;;5109161;28;20070;-66
2023/08/16 11:52:16;;;;;;;;;;;;;;;;;;5110580;28;20051;-66
2023/08/16 11:54:47;;;;;;;6.00;3.13;;;;;;;;;;5109985;28;19919;-66
2023/08/16 11:57:20;;;;;;;5.32;3.05;;;;;;;;;;5109338;28;20401;-65
2023/08/16 11:59:57;;;;;;;5.97;3.15;;;;;;;;;;5109195;28;20094;-66
2023/08/16 12:02:28;;;;;;;4.75;3.05;;;;;;;;;;5110666;28;20470;-66
2023/08/16 12:05:00;;;;;;;3.37;2.70;;;;;;;;;;5106029;28;20118;-65
2023/08/16 12:07:30;;;;;;;;;;;;;;;;;;5113954;28;20040;-66
2023/08/16 12:10:00;;;;;;;3.25;2.55;;;;;;;;;;5113065;28;20020;-66
2023/08/16 12:12:36;;;;;;;4.95;2.67;;;;;;;;;;5113398;28;20054;-66
2023/08/16 12:15:07;;;;;;;2.78;2.53;;;;;;;;;;5113872;28;20048;-66
2023/08/16 12:17:38;;;;;;;3.72;2.10;;;;;;;;;;5113302;28;20050;-66
2023/08/16 12:20:12;;;;;;;3.20;2.65;;;;;;;;;;5113152;28;20050;-66
2023/08/16 12:22:42;;;;;;;4.65;2.47;;;;;;;;;;5113151;28;20069;-66
2023/08/16 12:25:13;;;;;;;2.88;2.55;;;;;;;;;;5098886;28;20459;-66
2023/08/16 12:27:43;;;;;;;3.90;2.40;;;;;;;;;;5093145;28;20048;-66
2023/08/16 12:30:14;;;;;;;3.38;2.67;;;;;;;;;;5092677;28;20485;-66
2023/08/16 12:32:44;;;;;;;2.53;2.33;;;;;;;;;;5094224;28;20133;-65
2023/08/16 12:35:16;;;;;;;2.85;2.30;;;;;;;;;;5105466;28;20047;-65
2023/08/16 12:37:46;;;;;;;2.20;2.00;;;;;;;;;;5113690;28;20079;-66
2023/08/16 12:40:17;;;;;;;2.85;2.40;;;;;;;;;;5112571;28;20412;-66
2023/08/16 12:42:47;;;;;;;2.92;2.38;;;;;;;;;;5113401;28;20501;-65
2023/08/16 12:45:17;;;;;;;3.55;2.70;;;;;;;;;;5112724;28;20054;-66
2023/08/16 12:47:47;;;;;;;2.22;2.05;;;;;;;;;;5112623;28;20505;-66
2023/08/16 12:50:19;;;;;;;2.85;2.10;;;;;;;;;;5111994;28;20054;-66
2023/08/16 12:52:49;;;;;;;2.42;2.10;;;;;;;;;;5113025;28;20225;-66
2023/08/16 12:55:20;;;;;;;3.35;2.30;;;;;;;;;;5112108;28;20057;-66
2023/08/16 12:57:50;;;;;;;3.50;2.50;;;;;;;;;;5112948;28;20507;-66
2023/08/16 13:00:20;;;;;;;2.20;2.00;;;;;;;;;;5111629;28;20138;-66
2023/08/16 13:02:51;;;;;;;3.40;1.92;;;;;;;;;;5110503;28;20043;-66
2023/08/16 13:05:22;;;;;;;3.10;2.30;;;;;;;;;;5109693;28;20044;-66
2023/08/16 13:07:53;;;;;;;3.88;2.15;;;;;;;;;;5112049;28;20043;-66
2023/08/16 13:10:24;;;;;;;2.70;2.10;;;;;;;;;;5112261;28;20048;-66
2023/08/16 13:12:54;;;;;;;2.60;1.90;;;;;;;;;;5111854;28;20043;-66
2023/08/16 13:15:24;;;;;;;3.50;1.70;;;;;;;;;;5112177;28;20051;-66
2023/08/16 13:17:55;;;;;;;2.00;1.80;;;;;;;;;;5112230;28;20420;-66
2023/08/16 13:20:27;;;;;;;1.70;1.60;;;;;;;;;;5112073;28;20044;-66
2023/08/16 13:22:57;;;;;;;2.10;1.90;;;;;;;;;;5111649;28;20070;-66
2023/08/16 13:25:28;;;;;;;2.28;1.52;;;;;;;;;;5112191;28;20048;-66
2023/08/16 13:27:58;;;;;;;2.30;1.60;;;;;;;;;;5111698;28;20050;-66
2023/08/16 13:30:29;;;;;;;7.78;1.75;;;;;;;;;;5111891;28;20074;-66
2023/08/16 13:32:59;;;;;;;1.85;1.70;;;;;;;;;;5111377;28;20127;-66
2023/08/16 13:35:31;;;;;;;2.10;1.90;;;;;;;;;;5111924;28;20047;-66
2023/08/16 13:38:01;;;;;;;3.75;1.80;;;;;;;;;;5111670;28;20050;-66
2023/08/16 13:40:32;;;;;;;2.60;1.67;;;;;;;;;;5112295;28;20058;-66
2023/08/16 13:43:02;;;;;;;3.13;1.67;;;;;;;;;;5112130;28;20276;-66
2023/08/16 13:45:33;;;;;;;1.77;1.50;;;;;;;;;;5111659;28;20054;-66
2023/08/16 13:48:04;;;;;;;2.10;1.75;;;;;;;;;;5111540;28;20043;-66
2023/08/16 13:50:36;;;;;;;1.83;1.50;;;;;;;;;;5111614;28;20067;-66
2023/08/16 13:53:06;;;;;;;3.15;1.70;;;;;;;;;;5111827;28;20455;-66
2023/08/16 13:55:36;;;;;;;2.50;1.67;;;;;;;;;;5111562;28;20058;-66
2023/08/16 13:58:06;;;;;;;2.28;1.67;;;;;;;;;;5111402;28;20527;-66
2023/08/16 14:00:37;;;;;;;2.92;1.70;;;;;;;;;;5111312;28;20043;-66
2023/08/16 14:03:08;;;;;;;1.52;1.42;;;;;;;;;;5111974;28;20150;-66
2023/08/16 14:05:39;;;;;;;1.85;1.58;;;;;;;;;;5111300;28;20039;-67
2023/08/16 14:08:10;;;;;;;2.88;1.40;;;;;;;;;;5111153;28;20519;-66
2023/08/16 14:10:40;;;;;;;2.17;1.40;;;;;;;;;;5110527;28;20044;-66
2023/08/16 14:13:12;;;;;;;5.63;1.50;;;;;;;;;;5111174;28;20052;-67
2023/08/16 14:15:43;;;;;;;1.98;1.58;;;;;;;;;;5111517;28;20413;-66
2023/08/16 14:18:13;;;;;;;1.90;1.48;;;;;;;;;;5111028;28;20044;-67
2023/08/16 14:20:43;;;;;;;;;;;;;;;;;;5111391;28;20048;-67
2023/08/16 14:23:15;;;;;;;3.65;1.50;;;;;;;;;;5110711;28;19930;-66
2023/08/16 14:25:48;;;;;;;2.60;1.20;;;;;;;;;;5110344;28;20049;-66
2023/08/16 14:28:19;;;;;;;1.63;1.30;;;;;;;;;;5110503;28;20099;-66
2023/08/16 14:30:49;;;;;;;1.30;1.20;;;;;;;;;;5110944;28;20466;-66
2023/08/16 14:33:19;;;;;;;;;;;;;;;;;;5111133;28;20054;-66
2023/08/16 14:35:50;;;;;;;3.08;1.48;;;;;;;;;;5110905;28;20280;-66
2023/08/16 14:38:22;;;;;;;1.75;1.50;;;;;;;;;;5110212;28;20047;-66
2023/08/16 14:40:52;;;;;;;1.60;1.40;;;;;;;;;;5110860;28;20043;-66
2023/08/16 14:43:22;;;;;;;1.63;1.20;;;;;;;;;;5110855;28;20048;-66
2023/08/16 14:45:51;;;;;;;3.30;1.70;;;;;;;;;;5111321;28;20056;-66
2023/08/16 14:48:18;;;;;;;1.80;1.30;;;;;;;;;;5110185;28;20054;-66
2023/08/16 14:50:45;;;;;;;3.33;1.63;;;;;;;;;;5109942;28;20039;-66
2023/08/16 14:53:11;;;;;;;1.60;1.50;;;;;;;;;;5110726;28;20043;-66
2023/08/16 14:55:39;;;;;;;2.17;1.42;;;;;;;;;;5110272;28;20047;-67
2023/08/16 14:58:07;;;;;;;2.33;1.60;;;;;;;;;;5110659;28;20047;-66
2023/08/16 15:00:34;;;;;;;2.95;1.48;;;;;;;;;;5109811;28;20051;-66
2023/08/16 15:03:01;;;;;;;3.63;1.58;;;;;;;;;;5110151;28;20054;-66
2023/08/16 15:05:28;;;;;;;2.22;1.45;;;;;;;;;;5110028;28;20048;-66